createdAt,value
2018-07-24T00:06:53.865Z,22.20
2018-07-24T00:11:57.754Z,22.10
2018-07-24T00:17:01.832Z,22.00
2018-07-24T00:22:12.875Z,22.00
2018-07-24T00:27:16.787Z,21.90
2018-07-24T00:32:20.730Z,21.90
2018-07-24T00:37:24.636Z,21.80
2018-07-24T00:42:28.543Z,21.80
2018-07-24T00:47:32.174Z,21.70
2018-07-24T00:52:36.073Z,21.70
2018-07-24T01:03:13.387Z,21.60
2018-07-24T01:08:17.541Z,21.50
2018-07-24T01:13:21.319Z,21.50
2018-07-24T01:24:09.994Z,21.40
2018-07-24T01:29:13.716Z,21.30
2018-07-24T01:34:17.416Z,21.30
2018-07-24T01:39:21.564Z,21.20
2018-07-24T01:44:25.464Z,21.20
2018-07-24T01:49:29.164Z,21.10
2018-07-24T01:54:33.095Z,21.10
2018-07-24T01:59:37.024Z,21.10
2018-07-24T02:04:40.764Z,21.00
2018-07-24T02:20:40.814Z,20.90
2018-07-24T02:25:44.657Z,20.90
2018-07-24T02:30:48.584Z,20.80
2018-07-24T02:35:52.528Z,20.80
2018-07-24T02:40:56.593Z,20.80
2018-07-24T02:46:00.456Z,20.70
2018-07-24T02:51:04.165Z,20.70
2018-07-24T02:56:08.242Z,20.70
2018-07-24T03:01:11.887Z,20.60
2018-07-24T03:06:15.901Z,20.60
2018-07-24T03:11:19.841Z,20.60
2018-07-24T03:16:24.116Z,20.60
2018-07-24T03:21:35.403Z,20.50
2018-07-24T03:26:39.246Z,20.50
2018-07-24T03:31:43.205Z,20.50
2018-07-24T03:36:47.114Z,20.40
2018-07-24T03:41:51.393Z,20.40
2018-07-24T03:46:55.169Z,20.30
2018-07-24T03:52:03.024Z,20.40
2018-07-24T03:57:07.066Z,20.30
2018-07-24T04:02:11.645Z,20.30
2018-07-24T04:07:15.442Z,20.20
2018-07-24T04:12:19.121Z,20.30
2018-07-24T04:17:23.257Z,20.20
2018-07-24T04:22:27.312Z,20.20
2018-07-24T04:27:31.791Z,20.20
2018-07-24T04:32:35.558Z,20.20
2018-07-24T04:37:39.287Z,20.10
2018-07-24T04:42:43.488Z,20.10
2018-07-24T04:47:47.431Z,20.10
2018-07-24T04:52:51.248Z,20.10
2018-07-24T04:57:55.074Z,20.10
2018-07-24T05:02:58.906Z,20.10
2018-07-24T05:08:03.193Z,20.10
2018-07-24T05:13:07.060Z,20.10
2018-07-24T05:18:21.707Z,20.20
2018-07-24T05:23:25.915Z,20.20
2018-07-24T05:28:30.370Z,20.20
2018-07-24T05:33:34.033Z,20.20
2018-07-24T05:38:38.471Z,20.20
2018-07-24T05:43:42.296Z,20.30
2018-07-24T05:48:45.935Z,20.30
2018-07-24T05:53:49.582Z,20.40
2018-07-24T05:58:53.515Z,20.50
2018-07-24T06:09:01.295Z,20.60
2018-07-24T06:14:04.962Z,20.70
2018-07-24T06:19:09.828Z,20.90
2018-07-24T06:24:14.400Z,21.00
2018-07-24T06:29:18.223Z,21.10
2018-07-24T06:34:22.502Z,21.20
2018-07-24T06:39:27.706Z,21.40
2018-07-24T06:44:31.874Z,21.50
2018-07-24T06:49:41.032Z,21.70
2018-07-24T06:54:45.519Z,21.80
2018-07-24T06:59:49.367Z,22.00
2018-07-24T07:04:53.515Z,22.20
2018-07-24T07:09:57.598Z,22.30
2018-07-24T07:15:01.609Z,22.50
2018-07-24T07:20:05.991Z,22.60
2018-07-24T07:25:09.576Z,22.80
2018-07-24T07:30:14.442Z,23.00
2018-07-24T07:35:18.368Z,23.20
2018-07-24T07:40:22.499Z,23.40
2018-07-24T07:45:26.751Z,23.50
2018-07-24T07:50:30.824Z,23.70
2018-07-24T07:55:34.835Z,23.90
2018-07-24T08:00:38.693Z,24.10
2018-07-24T08:05:42.629Z,24.30
2018-07-24T08:10:46.820Z,24.40
2018-07-24T08:15:50.735Z,24.50
2018-07-24T08:20:54.807Z,24.70
2018-07-24T08:25:58.956Z,24.80
2018-07-24T08:31:02.811Z,24.90
2018-07-24T08:36:06.719Z,25.00
2018-07-24T08:41:10.634Z,25.10
2018-07-24T08:46:14.406Z,25.30
2018-07-24T08:51:18.181Z,25.40
2018-07-24T08:56:22.317Z,25.50
2018-07-24T09:01:26.306Z,25.70
2018-07-24T09:06:30.387Z,25.80
2018-07-24T09:11:34.245Z,25.90
2018-07-24T09:16:38.611Z,26.00
2018-07-24T09:21:42.692Z,26.20
2018-07-24T09:26:46.764Z,26.30
2018-07-24T09:31:50.823Z,26.50
2018-07-24T09:36:54.604Z,26.60
2018-07-24T09:41:58.689Z,26.80
2018-07-24T09:47:02.510Z,26.90
2018-07-24T09:52:06.379Z,27.10
2018-07-24T09:57:10.292Z,27.20
2018-07-24T10:02:15.192Z,27.40
2018-07-24T10:07:19.451Z,27.50
2018-07-24T10:12:25.876Z,27.70
2018-07-24T10:17:29.563Z,27.80
2018-07-24T10:22:34.965Z,28.00
2018-07-24T10:27:45.316Z,28.10
2018-07-24T10:32:49.137Z,28.20
2018-07-24T10:37:53.264Z,28.40
2018-07-24T10:42:57.221Z,28.50
2018-07-24T10:48:01.473Z,28.70
2018-07-24T10:53:05.378Z,28.80
2018-07-24T10:58:15.939Z,29.00
2018-07-24T11:03:20.419Z,29.20
2018-07-24T11:08:29.196Z,29.30
2018-07-24T11:13:33.095Z,29.40
2018-07-24T11:18:37.715Z,29.60
2018-07-24T11:23:41.632Z,29.80
2018-07-24T11:28:57.354Z,30.00
2018-07-24T11:34:01.242Z,30.20
2018-07-24T11:39:08.924Z,30.40
2018-07-24T11:44:15.285Z,30.50
2018-07-24T11:49:20.432Z,30.70
2018-07-24T11:54:25.215Z,30.80
2018-07-24T11:59:29.077Z,31.00
2018-07-24T12:04:33.992Z,31.20
2018-07-24T12:09:38.336Z,31.30
2018-07-24T12:14:42.205Z,31.30
2018-07-24T12:19:46.243Z,31.50
2018-07-24T12:24:49.969Z,31.60
2018-07-24T12:29:54.254Z,31.70
2018-07-24T12:34:58.410Z,31.80
2018-07-24T12:40:02.193Z,32.00
2018-07-24T12:45:06.383Z,32.20
2018-07-24T12:50:10.194Z,32.30
2018-07-24T12:55:14.315Z,32.50
2018-07-24T13:00:18.164Z,32.70
2018-07-24T13:05:21.826Z,32.90
2018-07-24T13:10:26.208Z,33.10
2018-07-24T13:15:48.381Z,33.30
2018-07-24T13:20:52.431Z,33.40
2018-07-24T13:25:57.882Z,33.60
2018-07-24T13:32:05.232Z,33.60
2018-07-24T13:37:09.337Z,33.80
2018-07-24T13:42:16.182Z,33.90
2018-07-24T13:47:29.867Z,34.00
2018-07-24T13:52:38.927Z,34.10
2018-07-24T13:57:43.108Z,34.10
2018-07-24T14:02:47.503Z,34.10
2018-07-24T14:07:53.636Z,34.20
2018-07-24T14:12:58.240Z,34.20
2018-07-24T14:18:03.739Z,34.20
2018-07-24T14:23:08.272Z,34.30
2018-07-24T14:28:12.313Z,34.30
2018-07-24T14:33:21.781Z,34.40
2018-07-24T14:38:25.575Z,34.50
2018-07-24T14:43:29.838Z,34.50
2018-07-24T14:48:33.963Z,34.50
2018-07-24T14:53:38.000Z,34.60
2018-07-24T14:58:43.616Z,34.60
2018-07-24T15:03:47.546Z,34.70
2018-07-24T15:09:05.671Z,34.70
2018-07-24T15:14:09.665Z,34.70
2018-07-24T15:19:13.837Z,34.80
2018-07-24T15:24:17.673Z,34.80
2018-07-24T15:29:21.496Z,34.80
2018-07-24T15:34:25.811Z,34.70
2018-07-24T15:39:30.302Z,34.70
2018-07-24T15:44:34.219Z,34.80
2018-07-24T15:49:39.242Z,34.80
2018-07-24T15:54:43.159Z,34.70
2018-07-24T15:59:47.152Z,34.70
2018-07-24T16:04:50.855Z,34.60
2018-07-24T16:09:54.568Z,34.60
2018-07-24T16:14:59.451Z,34.60
2018-07-24T16:20:03.600Z,34.60
2018-07-24T16:25:07.506Z,34.40
2018-07-24T16:30:11.731Z,34.20
2018-07-24T16:35:15.637Z,34.10
2018-07-24T16:40:19.389Z,34.00
2018-07-24T16:45:23.233Z,33.90
2018-07-24T16:50:27.040Z,33.90
2018-07-24T16:55:31.236Z,33.80
2018-07-24T17:00:35.288Z,33.80
2018-07-24T17:05:39.178Z,33.70
2018-07-24T17:10:43.351Z,33.60
2018-07-24T17:15:47.636Z,33.60
2018-07-24T17:20:51.556Z,33.50
2018-07-24T17:25:55.397Z,33.40
2018-07-24T17:30:59.203Z,33.30
2018-07-24T17:36:03.522Z,33.30
2018-07-24T17:41:07.398Z,33.10
2018-07-24T17:46:11.371Z,33.00
2018-07-24T17:51:15.209Z,32.80
2018-07-24T17:56:19.327Z,32.60
2018-07-24T18:01:25.179Z,32.40
2018-07-24T18:06:28.872Z,32.30
2018-07-24T18:11:34.050Z,32.10
2018-07-24T18:16:43.370Z,31.90
2018-07-24T18:21:47.710Z,31.70
2018-07-24T18:26:59.444Z,31.50
2018-07-24T18:32:03.103Z,31.40
2018-07-24T18:37:06.799Z,31.20
2018-07-24T18:42:11.483Z,31.00
2018-07-24T18:47:20.266Z,30.80
2018-07-24T18:52:24.017Z,30.60
2018-07-24T18:57:27.638Z,30.50
2018-07-24T19:02:31.509Z,30.30
2018-07-24T19:07:35.135Z,30.20
2018-07-24T19:12:39.182Z,30.00
2018-07-24T19:17:44.310Z,29.80
2018-07-24T19:22:50.452Z,29.70
2018-07-24T19:27:54.183Z,29.50
2018-07-24T19:32:57.920Z,29.30
2018-07-24T19:38:07.629Z,29.10
2018-07-24T19:43:11.417Z,28.90
2018-07-24T19:48:15.443Z,28.70
2018-07-24T19:53:19.755Z,28.50
2018-07-24T19:58:25.673Z,28.40
2018-07-24T20:03:29.587Z,28.20
2018-07-24T20:08:33.373Z,28.10
2018-07-24T20:13:37.216Z,27.90
2018-07-24T20:18:41.220Z,27.70
2018-07-24T20:23:45.202Z,27.60
2018-07-24T20:28:49.374Z,27.60
2018-07-24T20:33:53.461Z,27.50
2018-07-24T20:38:57.364Z,27.50
2018-07-24T20:49:04.900Z,27.40
2018-07-24T20:54:09.280Z,27.30
2018-07-24T20:59:13.188Z,27.30
2018-07-24T21:09:43.694Z,27.30
2018-07-24T21:14:54.692Z,27.30
2018-07-24T21:19:59.683Z,27.30
2018-07-24T21:25:04.574Z,27.20
2018-07-24T21:30:11.651Z,27.20
2018-07-24T21:35:22.280Z,27.20
2018-07-24T21:40:26.607Z,27.20
2018-07-24T21:45:31.302Z,27.20
2018-07-24T21:50:41.571Z,27.10
2018-07-24T22:00:54.768Z,27.10
2018-07-24T22:06:01.012Z,27.10
2018-07-24T22:11:05.244Z,27.00
2018-07-24T22:16:09.153Z,27.00
2018-07-24T22:21:15.178Z,27.00
2018-07-24T22:26:20.627Z,27.00
2018-07-24T22:31:25.627Z,26.90
2018-07-24T22:36:29.427Z,26.90
2018-07-24T22:41:33.353Z,26.90
2018-07-24T22:46:37.147Z,26.90
2018-07-24T22:51:41.267Z,26.90
2018-07-24T22:56:44.980Z,26.80
2018-07-24T23:01:49.069Z,26.70
2018-07-24T23:06:53.244Z,26.60
2018-07-24T23:11:56.945Z,26.50
2018-07-24T23:17:01.153Z,26.40
2018-07-24T23:22:04.887Z,26.30
2018-07-24T23:27:08.670Z,26.20
2018-07-24T23:32:12.595Z,26.20
2018-07-24T23:37:16.489Z,26.10
2018-07-24T23:42:20.675Z,26.00
2018-07-24T23:47:24.492Z,25.90
2018-07-24T23:52:28.145Z,25.90
2018-07-24T23:57:31.969Z,25.80
